Terminal Aerodrome Forecast
Issued by NWS

Home | Current Version | Previous Version | Text Only | Print | Product List | Glossary On
Versions: 1 2 3 4 5 6 7 8 9 10 11 12 13 14 15 16
235
FTUS43 KAPX 121737
TAFMBL
TAF
KMBL 121737Z 1218/1318 31012G20KT 6SM -SHSN SCT025 OVC040
      TEMPO 1219/1222 1 1/2SM -SHSN OVC022
     FM122200 33012G22KT 2SM -SHSN BLSN OVC022
     FM131500 32011G19KT 5SM -SHSN OVC028
      AMD LTD TO CLD VIS AND WIND=

USA.gov is the U.S. government's official web portal to all federal, state and local government web resources and services.